createdAt,value
2019-04-05T00:00:06.285Z,9.80
2019-04-05T00:02:33.428Z,9.90
2019-04-05T00:05:00.684Z,10.00
2019-04-05T00:07:28.024Z,10.10
2019-04-05T00:09:55.664Z,10.20
2019-04-05T00:12:22.896Z,10.10
2019-04-05T00:14:50.197Z,10.20
2019-04-05T00:17:17.461Z,10.30
2019-04-05T00:19:45.062Z,10.30
2019-04-05T00:22:12.271Z,10.30
2019-04-05T00:24:39.673Z,10.40
2019-04-05T00:27:07.187Z,10.40
2019-04-05T00:29:34.436Z,10.40
2019-04-05T00:32:01.689Z,10.40
2019-04-05T00:34:28.976Z,10.30
2019-04-05T00:36:56.268Z,10.40
2019-04-05T00:39:23.549Z,10.40
2019-04-05T00:41:50.780Z,10.40
2019-04-05T00:44:18.028Z,10.30
2019-04-05T00:46:45.289Z,10.40
2019-04-05T00:49:12.605Z,10.40
2019-04-05T00:51:39.893Z,10.30
2019-04-05T00:54:07.149Z,10.30
2019-04-05T00:56:34.445Z,10.30
2019-04-05T00:59:01.749Z,10.40
2019-04-05T01:01:28.997Z,10.40
2019-04-05T01:03:56.216Z,10.40
2019-04-05T01:06:23.456Z,10.50
2019-04-05T01:08:50.835Z,10.40
2019-04-05T01:11:18.092Z,10.40
2019-04-05T01:13:45.404Z,10.40
2019-04-05T01:16:12.631Z,10.30
2019-04-05T01:18:40.193Z,10.30
2019-04-05T01:21:10.028Z,10.30
2019-04-05T01:23:37.384Z,10.30
2019-04-05T01:26:05.179Z,10.30
2019-04-05T01:28:33.005Z,10.30
2019-04-05T01:31:00.605Z,10.30
2019-04-05T01:33:27.857Z,10.30
2019-04-05T01:35:55.088Z,10.30
2019-04-05T01:38:22.483Z,10.50
2019-04-05T01:40:50.016Z,10.30
2019-04-05T01:43:17.816Z,10.40
2019-04-05T01:45:53.564Z,10.30
2019-04-05T01:48:14.728Z,10.30
2019-04-05T01:50:41.978Z,10.30
2019-04-05T01:53:09.251Z,10.30
2019-04-05T01:55:36.512Z,10.40
2019-04-05T01:58:03.769Z,10.30
2019-04-05T02:00:31.061Z,10.30
2019-04-05T02:02:58.790Z,10.30
2019-04-05T02:05:26.393Z,10.30
2019-04-05T02:07:53.754Z,10.30
2019-04-05T02:10:20.999Z,10.30
2019-04-05T02:12:48.250Z,10.30
2019-04-05T02:15:40.856Z,10.20
2019-04-05T02:18:08.095Z,10.20
2019-04-05T02:20:35.320Z,10.10
2019-04-05T02:23:02.573Z,10.10
2019-04-05T02:25:29.925Z,10.10
2019-04-05T02:27:57.156Z,10.10
2019-04-05T02:30:25.221Z,10.10
2019-04-05T02:32:52.455Z,10.10
2019-04-05T02:35:19.699Z,10.10
2019-04-05T02:37:47.004Z,10.00
2019-04-05T02:40:15.521Z,10.00
2019-04-05T02:42:45.461Z,10.00
2019-04-05T02:45:13.328Z,10.00
2019-04-05T02:47:43.803Z,9.90
2019-04-05T02:50:11.412Z,9.80
2019-04-05T02:52:41.710Z,9.60
2019-04-05T02:55:10.320Z,9.50
2019-04-05T02:57:38.023Z,9.40
2019-04-05T03:00:05.592Z,9.30
2019-04-05T03:02:34.154Z,9.20
2019-04-05T03:05:01.627Z,9.10
2019-04-05T03:07:29.284Z,9.00
2019-04-05T03:09:57.491Z,9.00
2019-04-05T03:12:25.339Z,9.10
2019-04-05T03:14:53.544Z,9.20
2019-04-05T03:17:21.664Z,9.20
2019-04-05T03:19:50.911Z,9.30
2019-04-05T03:22:18.961Z,9.40
2019-04-05T03:24:47.017Z,9.40
2019-04-05T03:27:19.833Z,9.50
2019-04-05T03:29:47.150Z,9.60
2019-04-05T03:32:15.223Z,9.60
2019-04-05T03:34:44.236Z,9.60
2019-04-05T03:37:11.837Z,9.60
2019-04-05T03:39:39.494Z,9.70
2019-04-05T03:42:07.433Z,9.70
2019-04-05T03:44:35.462Z,9.70
2019-04-05T03:47:02.794Z,9.70
2019-04-05T03:49:30.073Z,9.80
2019-04-05T03:51:57.422Z,9.80
2019-04-05T03:54:24.794Z,9.80
2019-04-05T03:56:52.173Z,9.80
2019-04-05T03:59:19.677Z,9.80
2019-04-05T04:01:46.989Z,9.80
2019-04-05T04:04:14.384Z,9.80
2019-04-05T04:06:41.609Z,9.80
2019-04-05T04:09:08.935Z,9.90
2019-04-05T04:11:36.573Z,9.80
2019-04-05T04:14:04.368Z,9.80
2019-04-05T04:16:31.668Z,9.80
2019-04-05T04:18:59.629Z,9.90
2019-04-05T04:21:40.392Z,9.80
2019-04-05T04:24:08.361Z,9.70
2019-04-05T04:26:35.729Z,9.70
2019-04-05T04:29:03.222Z,9.70
2019-04-05T04:31:30.562Z,9.70
2019-04-05T04:33:58.026Z,9.60
2019-04-05T04:36:25.481Z,9.60
2019-04-05T04:38:53.329Z,9.70
2019-04-05T04:41:20.536Z,9.60
2019-04-05T04:43:47.988Z,9.70
2019-04-05T04:46:15.769Z,9.60
2019-04-05T04:48:43.541Z,9.60
2019-04-05T04:51:11.740Z,9.70
2019-04-05T04:53:40.428Z,9.60
2019-04-05T04:56:07.751Z,9.70
2019-04-05T04:58:35.167Z,9.70
2019-04-05T05:01:02.756Z,9.80
2019-04-05T05:03:30.117Z,9.80
2019-04-05T05:05:57.633Z,10.00
2019-04-05T05:08:25.097Z,9.90
2019-04-05T05:10:52.480Z,10.00
2019-04-05T05:13:19.899Z,10.10
2019-04-05T05:15:47.483Z,10.10
2019-04-05T05:18:14.825Z,10.10
2019-04-05T05:20:42.878Z,10.20
2019-04-05T05:23:10.988Z,10.20
2019-04-05T05:25:38.321Z,10.20
2019-04-05T05:28:05.795Z,10.30
2019-04-05T05:30:33.233Z,10.30
2019-04-05T05:33:00.610Z,10.40
2019-04-05T05:35:27.842Z,10.40
2019-04-05T05:37:55.342Z,10.40
2019-04-05T05:40:34.134Z,10.50
2019-04-05T05:42:51.998Z,10.50
2019-04-05T05:45:19.818Z,10.50
2019-04-05T05:47:52.142Z,10.60
2019-04-05T05:50:16.481Z,10.70
2019-04-05T05:52:43.821Z,10.70
2019-04-05T05:55:11.144Z,10.70
2019-04-05T05:57:38.393Z,10.80
2019-04-05T06:00:07.437Z,10.80
2019-04-05T06:02:36.488Z,11.10
2019-04-05T06:05:03.984Z,11.20
2019-04-05T06:07:31.335Z,11.20
2019-04-05T06:09:59.751Z,11.30
2019-04-05T06:12:26.928Z,11.40
2019-04-05T06:14:54.032Z,11.60
2019-04-05T06:17:21.281Z,11.60
2019-04-05T06:19:48.525Z,11.70
2019-04-05T06:22:15.710Z,11.80
2019-04-05T06:24:42.965Z,12.00
2019-04-05T06:27:10.250Z,12.10
2019-04-05T06:29:37.392Z,12.20
2019-04-05T06:32:04.673Z,12.40
2019-04-05T06:34:31.928Z,12.50
2019-04-05T06:36:59.226Z,12.70
2019-04-05T06:39:26.665Z,13.00
2019-04-05T06:41:54.087Z,13.10
2019-04-05T06:44:21.283Z,13.30
2019-04-05T06:46:48.661Z,13.40
2019-04-05T06:49:15.739Z,13.50
2019-04-05T06:51:42.889Z,13.70
2019-04-05T06:54:10.237Z,13.70
2019-04-05T06:56:37.332Z,13.80
2019-04-05T06:59:04.710Z,13.90
2019-04-05T07:01:32.073Z,13.90
2019-04-05T07:03:59.378Z,14.10
2019-04-05T07:06:26.645Z,14.30
2019-04-05T07:08:54.288Z,14.20
2019-04-05T07:11:21.748Z,14.30
2019-04-05T07:13:49.001Z,14.30
2019-04-05T07:16:16.244Z,14.30
2019-04-05T07:18:43.771Z,14.40
2019-04-05T07:21:11.045Z,14.30
2019-04-05T07:23:38.299Z,14.40
2019-04-05T07:26:05.573Z,14.20
2019-04-05T07:28:33.269Z,14.30
2019-04-05T07:31:00.488Z,14.40
2019-04-05T07:33:27.495Z,14.50
2019-04-05T07:35:54.912Z,14.70
2019-04-05T07:38:22.433Z,14.80
2019-04-05T07:40:49.599Z,15.10
2019-04-05T07:43:16.981Z,15.20
2019-04-05T07:45:45.977Z,15.30
2019-04-05T07:48:13.097Z,15.40
2019-04-05T07:50:40.272Z,15.60
2019-04-05T07:53:07.625Z,16.00
2019-04-05T07:55:34.929Z,16.10
2019-04-05T07:58:02.136Z,16.20
2019-04-05T08:00:47.917Z,16.20
2019-04-05T08:03:15.189Z,16.00
2019-04-05T08:05:42.673Z,16.00
2019-04-05T08:08:14.208Z,15.90
2019-04-05T08:10:43.865Z,15.90
2019-04-05T08:13:13.743Z,16.00
2019-04-05T08:15:41.970Z,16.20
2019-04-05T08:18:09.200Z,16.50
2019-04-05T08:20:36.465Z,16.70
2019-04-05T08:23:03.801Z,16.90
2019-04-05T08:25:31.059Z,17.00
2019-04-05T08:27:58.296Z,17.30
2019-04-05T08:30:25.587Z,17.60
2019-04-05T08:32:52.635Z,17.80
2019-04-05T08:35:19.660Z,17.90
2019-04-05T08:37:47.080Z,17.70
2019-04-05T08:40:14.656Z,17.50
2019-04-05T08:42:42.102Z,17.40
2019-04-05T08:45:09.419Z,17.20
2019-04-05T08:47:36.683Z,17.10
2019-04-05T08:50:04.029Z,17.00
2019-04-05T08:52:31.167Z,16.90
2019-04-05T08:54:58.344Z,17.00
2019-04-05T08:57:25.555Z,17.10
2019-04-05T08:59:53.427Z,17.40
2019-04-05T09:02:20.700Z,17.70
2019-04-05T09:04:48.304Z,17.80
2019-04-05T09:07:15.515Z,17.90
2019-04-05T09:09:42.972Z,18.00
2019-04-05T09:12:10.984Z,17.80
2019-04-05T09:14:38.284Z,17.70
2019-04-05T09:17:05.527Z,17.70
2019-04-05T09:19:32.576Z,17.70
2019-04-05T09:21:59.871Z,17.60
2019-04-05T09:24:27.000Z,17.60
2019-04-05T09:26:54.577Z,17.60
2019-04-05T09:29:21.899Z,17.60
2019-04-05T09:31:49.157Z,17.40
2019-04-05T09:34:17.012Z,17.30
2019-04-05T09:36:44.437Z,17.30
2019-04-05T09:39:15.343Z,17.10
2019-04-05T09:41:40.751Z,17.10
2019-04-05T09:44:07.951Z,16.90
2019-04-05T09:46:45.889Z,16.80
2019-04-05T09:49:04.074Z,16.70
2019-04-05T09:51:31.383Z,16.60
2019-04-05T09:53:58.623Z,16.40
2019-04-05T09:56:25.769Z,16.20
2019-04-05T09:58:53.153Z,16.20
2019-04-05T10:01:20.282Z,16.20
2019-04-05T10:03:47.543Z,16.10
2019-04-05T10:06:14.930Z,16.10
2019-04-05T10:08:44.442Z,16.20
2019-04-05T10:11:11.685Z,16.10
2019-04-05T10:13:38.808Z,16.10
2019-04-05T10:16:06.023Z,15.90
2019-04-05T10:18:33.154Z,16.10
2019-04-05T10:21:00.397Z,16.00
2019-04-05T10:23:27.526Z,15.90
2019-04-05T10:25:54.667Z,15.90
2019-04-05T10:28:21.672Z,15.90
2019-04-05T10:30:51.730Z,15.90
2019-04-05T10:33:17.817Z,16.00
2019-04-05T10:35:45.082Z,16.00
2019-04-05T10:38:12.200Z,16.00
2019-04-05T10:40:39.323Z,16.10
2019-04-05T10:43:06.574Z,16.20
2019-04-05T10:45:33.817Z,16.20
2019-04-05T10:48:00.953Z,16.20
2019-04-05T10:50:28.225Z,16.40
2019-04-05T10:52:55.348Z,16.50
2019-04-05T10:55:22.667Z,16.50
2019-04-05T10:57:49.813Z,16.60
2019-04-05T11:00:18.029Z,16.60
2019-04-05T11:02:45.418Z,16.60
2019-04-05T11:05:14.109Z,16.50
2019-04-05T11:07:41.243Z,16.40
2019-04-05T11:10:08.735Z,16.40
2019-04-05T11:12:36.043Z,16.50
2019-04-05T11:15:04.566Z,16.50
2019-04-05T11:17:31.923Z,16.50
2019-04-05T11:19:58.951Z,16.50
2019-04-05T11:22:26.048Z,16.60
2019-04-05T11:24:53.088Z,16.60
2019-04-05T11:27:20.208Z,16.70
2019-04-05T11:29:47.459Z,16.70
2019-04-05T11:32:14.712Z,16.70
2019-04-05T11:34:42.620Z,16.90
2019-04-05T11:37:10.072Z,16.80
2019-04-05T11:39:37.292Z,16.90
2019-04-05T11:42:04.510Z,16.90
2019-04-05T11:44:32.503Z,17.00
2019-04-05T11:47:00.016Z,17.00
2019-04-05T11:49:28.932Z,17.10
2019-04-05T11:51:56.155Z,17.20
2019-04-05T11:54:23.334Z,17.20
2019-04-05T11:56:50.465Z,17.20
2019-04-05T11:59:17.849Z,17.20
2019-04-05T12:01:55.459Z,17.30
2019-04-05T12:04:22.474Z,17.40
2019-04-05T12:06:51.811Z,17.50
2019-04-05T12:09:18.443Z,17.60
2019-04-05T12:11:46.482Z,17.60
2019-04-05T12:14:13.693Z,17.60
2019-04-05T12:16:41.646Z,17.70
2019-04-05T12:19:08.915Z,17.60
2019-04-05T12:21:36.007Z,17.60
2019-04-05T12:24:03.240Z,17.60
2019-04-05T12:26:30.468Z,17.70
2019-04-05T12:28:57.711Z,17.80
2019-04-05T12:31:25.953Z,17.80
2019-04-05T12:33:53.104Z,18.00
2019-04-05T12:36:22.101Z,17.90
2019-04-05T12:38:49.340Z,17.90
2019-04-05T12:41:18.200Z,17.90
2019-04-05T12:43:45.620Z,17.90
2019-04-05T12:46:15.922Z,18.00
2019-04-05T12:48:45.469Z,18.00
2019-04-05T12:51:15.696Z,18.00
2019-04-05T12:53:43.391Z,18.00
2019-04-05T12:56:10.552Z,18.10
2019-04-05T12:58:37.823Z,18.10
2019-04-05T13:01:08.063Z,18.20
2019-04-05T13:03:33.934Z,18.30
2019-04-05T13:06:01.126Z,18.20
2019-04-05T13:08:28.496Z,18.30
2019-04-05T13:10:56.836Z,18.30
2019-04-05T13:13:26.848Z,18.50
2019-04-05T13:15:53.652Z,18.40
2019-04-05T13:18:20.703Z,18.40
2019-04-05T13:20:47.953Z,18.50
2019-04-05T13:23:15.049Z,18.60
2019-04-05T13:25:42.163Z,18.70
2019-04-05T13:28:13.545Z,18.60
2019-04-05T13:30:38.314Z,18.70
2019-04-05T13:33:05.548Z,18.50
2019-04-05T13:35:32.634Z,18.60
2019-04-05T13:38:00.684Z,18.60
2019-04-05T13:40:29.617Z,18.70
2019-04-05T13:43:01.678Z,18.60
2019-04-05T13:45:27.027Z,18.70
2019-04-05T13:47:54.024Z,18.70
2019-04-05T13:50:21.329Z,18.70
2019-04-05T13:52:48.564Z,18.70
2019-04-05T13:55:15.845Z,18.70
2019-04-05T13:57:43.108Z,18.70
2019-04-05T14:00:12.235Z,18.70
2019-04-05T14:02:39.434Z,18.90
2019-04-05T14:05:06.869Z,18.80
2019-04-05T14:07:34.311Z,18.80
2019-04-05T14:10:01.720Z,18.80
2019-04-05T14:12:31.412Z,18.80
2019-04-05T14:14:58.936Z,18.70
2019-04-05T14:17:25.921Z,18.70
2019-04-05T14:19:53.080Z,18.60
2019-04-05T14:22:22.246Z,18.60
2019-04-05T14:24:50.428Z,18.60
2019-04-05T14:27:17.894Z,18.70
2019-04-05T14:29:47.538Z,18.70
2019-04-05T14:32:21.072Z,18.70
2019-04-05T14:34:42.936Z,18.70
2019-04-05T14:37:10.191Z,18.80
2019-04-05T14:39:37.663Z,18.80
2019-04-05T14:42:09.867Z,18.90
2019-04-05T14:44:33.818Z,19.00
2019-04-05T14:47:00.970Z,19.00
2019-04-05T14:49:30.755Z,19.10
2019-04-05T14:52:01.227Z,19.10
2019-04-05T14:54:30.168Z,19.20
2019-04-05T14:56:57.515Z,19.30
2019-04-05T14:59:27.189Z,19.40
2019-04-05T15:01:54.271Z,19.40
2019-04-05T15:04:21.321Z,19.40
2019-04-05T15:06:50.303Z,19.40
2019-04-05T15:09:17.340Z,19.30
2019-04-05T15:11:44.439Z,19.20
2019-04-05T15:14:11.668Z,19.10
2019-04-05T15:16:38.892Z,19.00
2019-04-05T15:19:06.094Z,19.00
2019-04-05T15:21:34.882Z,18.90
2019-04-05T15:24:02.482Z,18.80
2019-04-05T15:26:29.715Z,18.70
2019-04-05T15:28:56.845Z,18.40
2019-04-05T15:31:26.492Z,18.20
2019-04-05T15:33:52.759Z,18.10
2019-04-05T15:36:19.866Z,18.10
2019-04-05T15:38:46.892Z,18.20
2019-04-05T15:41:13.906Z,18.10
2019-04-05T15:43:41.083Z,18.10
2019-04-05T15:46:08.304Z,18.10
2019-04-05T15:48:35.342Z,18.10
2019-04-05T15:51:02.551Z,18.10
2019-04-05T15:53:32.047Z,18.10
2019-04-05T15:55:58.732Z,18.10
2019-04-05T15:58:25.858Z,18.10
2019-04-05T16:00:53.096Z,18.10
2019-04-05T16:03:20.250Z,18.10
2019-04-05T16:05:47.442Z,18.00
2019-04-05T16:08:16.741Z,18.00
2019-04-05T16:10:45.623Z,18.00
2019-04-05T16:13:13.123Z,18.00
2019-04-05T16:15:40.139Z,18.00
2019-04-05T16:18:07.443Z,18.00
2019-04-05T16:20:34.721Z,18.10
2019-04-05T16:23:01.855Z,18.00
2019-04-05T16:25:29.098Z,18.10
2019-04-05T16:27:56.546Z,18.10
2019-04-05T16:30:25.241Z,18.10
2019-04-05T16:32:52.207Z,18.00
2019-04-05T16:35:19.504Z,17.90
2019-04-05T16:37:46.628Z,17.80
2019-04-05T16:40:14.456Z,17.70
2019-04-05T16:42:41.500Z,17.60
2019-04-05T16:45:09.752Z,17.50
2019-04-05T16:47:37.065Z,17.40
2019-04-05T16:50:05.149Z,17.30
2019-04-05T16:52:44.133Z,17.20
2019-04-05T16:55:01.403Z,17.10
2019-04-05T16:57:28.736Z,17.00
2019-04-05T16:59:55.984Z,16.90
2019-04-05T17:02:22.979Z,16.80
2019-04-05T17:04:50.083Z,16.70
2019-04-05T17:07:17.133Z,16.70
2019-04-05T17:09:44.301Z,16.70
2019-04-05T17:12:11.403Z,16.60
2019-04-05T17:14:38.648Z,16.60
2019-04-05T17:17:06.139Z,16.60
2019-04-05T17:19:33.172Z,16.50
2019-04-05T17:22:00.330Z,16.50
2019-04-05T17:24:29.677Z,16.40
2019-04-05T17:26:56.663Z,16.40
2019-04-05T17:29:23.867Z,16.40
2019-04-05T17:31:52.406Z,16.30
2019-04-05T17:34:19.624Z,16.20
2019-04-05T17:36:46.757Z,16.20
2019-04-05T17:39:14.272Z,16.10
2019-04-05T17:41:41.412Z,16.10
2019-04-05T17:44:08.660Z,16.00
2019-04-05T17:46:35.712Z,16.00
2019-04-05T17:49:02.907Z,16.00
2019-04-05T17:51:30.606Z,15.90
2019-04-05T17:53:58.066Z,15.90
2019-04-05T17:56:25.695Z,15.80
2019-04-05T17:58:53.650Z,15.80
2019-04-05T18:01:20.728Z,15.70
2019-04-05T18:03:47.888Z,15.60
2019-04-05T18:06:14.879Z,15.50
2019-04-05T18:08:42.098Z,15.40
2019-04-05T18:11:09.339Z,15.40
2019-04-05T18:13:36.554Z,15.30
2019-04-05T18:16:03.831Z,15.20
2019-04-05T18:18:30.871Z,15.10
2019-04-05T18:20:58.117Z,15.00
2019-04-05T18:23:25.892Z,14.90
2019-04-05T18:25:53.323Z,14.80
2019-04-05T18:28:21.960Z,14.70
2019-04-05T18:30:49.584Z,14.60
2019-04-05T18:33:16.817Z,14.40
2019-04-05T18:35:43.979Z,14.40
2019-04-05T18:38:11.084Z,14.20
2019-04-05T18:40:40.189Z,14.00
2019-04-05T18:43:08.364Z,13.90
2019-04-05T18:45:35.852Z,13.80
2019-04-05T18:48:03.095Z,13.60
2019-04-05T18:50:30.330Z,13.50
2019-04-05T18:52:57.608Z,13.30
2019-04-05T18:55:25.078Z,13.30
2019-04-05T18:57:52.279Z,13.20
2019-04-05T19:00:19.704Z,13.00
2019-04-05T19:02:47.169Z,13.00
2019-04-05T19:05:14.410Z,12.90
2019-04-05T19:07:41.676Z,12.90
2019-04-05T19:10:10.897Z,12.80
2019-04-05T19:12:39.950Z,12.80
2019-04-05T19:15:07.664Z,12.80
2019-04-05T19:17:35.080Z,12.60
2019-04-05T19:20:02.704Z,12.60
2019-04-05T19:22:30.117Z,12.40
2019-04-05T19:24:57.426Z,12.30
2019-04-05T19:27:24.710Z,12.30
2019-04-05T19:29:51.985Z,12.20
2019-04-05T19:49:44.413Z,12.00
2019-04-05T19:52:13.181Z,11.90
2019-04-05T19:54:40.755Z,11.90
2019-04-05T19:57:07.937Z,11.80
2019-04-05T19:59:35.388Z,11.80
2019-04-05T20:02:02.724Z,11.80
2019-04-05T20:04:30.001Z,11.80
2019-04-05T20:06:58.589Z,11.80
2019-04-05T20:09:26.882Z,11.80
2019-04-05T20:11:54.130Z,11.80
2019-04-05T20:14:21.376Z,11.80
2019-04-05T20:16:48.625Z,11.80
2019-04-05T20:19:15.913Z,11.80
2019-04-05T20:21:43.157Z,11.80
2019-04-05T20:24:14.296Z,11.80
2019-04-05T20:26:40.408Z,11.80
2019-04-05T20:29:07.649Z,11.70
2019-04-05T20:31:35.231Z,11.70
2019-04-05T20:34:02.403Z,11.70
2019-04-05T20:36:29.677Z,11.70
2019-04-05T20:38:56.919Z,11.70
2019-04-05T20:41:24.234Z,11.70
2019-04-05T20:43:51.576Z,11.60
2019-04-05T20:46:21.359Z,11.60
2019-04-05T20:48:48.662Z,11.50
2019-04-05T20:51:16.010Z,11.40
2019-04-05T20:53:43.344Z,11.30
2019-04-05T20:56:10.651Z,11.40
2019-04-05T20:58:38.269Z,11.20
2019-04-05T21:01:05.829Z,11.10
2019-04-05T21:03:33.092Z,11.00
2019-04-05T21:06:02.558Z,11.00
2019-04-05T21:08:29.924Z,10.90
2019-04-05T21:10:57.119Z,11.00
2019-04-05T21:13:24.656Z,10.80
2019-04-05T21:15:51.931Z,10.70
2019-04-05T21:18:19.212Z,10.70
2019-04-05T21:20:46.613Z,10.60
2019-04-05T21:23:14.040Z,10.60
2019-04-05T21:25:41.280Z,10.50
2019-04-05T21:28:08.556Z,10.60
2019-04-05T21:30:35.848Z,10.40
2019-04-05T21:33:03.187Z,10.40
2019-04-05T21:35:30.739Z,10.30
2019-04-05T21:37:57.950Z,10.30
2019-04-05T21:40:25.092Z,10.20
2019-04-05T21:42:52.348Z,10.10
2019-04-05T21:45:19.604Z,10.10
2019-04-05T21:47:46.872Z,10.00
2019-04-05T21:50:14.003Z,10.00
2019-04-05T21:52:41.343Z,9.90
2019-04-05T21:55:08.548Z,9.90
2019-04-05T21:57:35.944Z,9.80
2019-04-05T22:00:06.036Z,9.70
2019-04-05T22:02:33.180Z,9.70
2019-04-05T22:05:01.397Z,9.60
2019-04-05T22:07:29.120Z,9.50
2019-04-05T22:09:56.393Z,9.50
2019-04-05T22:12:23.639Z,9.40
2019-04-05T22:14:50.921Z,9.30
2019-04-05T22:17:18.187Z,9.20
2019-04-05T22:19:45.720Z,9.20
2019-04-05T22:22:13.028Z,9.10
2019-04-05T22:24:40.306Z,9.00
2019-04-05T22:27:07.557Z,9.10
2019-04-05T22:29:34.803Z,8.90
2019-04-05T22:32:02.042Z,8.80
2019-04-05T22:34:29.359Z,8.80
2019-04-05T22:36:56.625Z,8.80
2019-04-05T22:39:23.948Z,8.90
2019-04-05T22:41:51.209Z,8.80
2019-04-05T22:44:18.459Z,8.70
2019-04-05T22:46:45.771Z,8.60
2019-04-05T22:49:12.879Z,8.60
2019-04-05T22:51:40.175Z,8.60
2019-04-05T22:54:07.496Z,8.50
2019-04-05T22:56:34.802Z,8.50
2019-04-05T22:59:02.081Z,8.40
2019-04-05T23:01:29.376Z,8.40
2019-04-05T23:03:56.908Z,8.30
2019-04-05T23:06:24.167Z,8.40
2019-04-05T23:08:51.845Z,8.30
2019-04-05T23:11:19.061Z,8.30
2019-04-05T23:13:46.359Z,8.20
2019-04-05T23:16:13.637Z,8.20
2019-04-05T23:18:40.881Z,8.10
2019-04-05T23:21:08.133Z,8.10
2019-04-05T23:23:35.477Z,8.10
2019-04-05T23:26:02.764Z,8.00
2019-04-05T23:28:30.176Z,8.00
2019-04-05T23:30:57.473Z,7.90
2019-04-05T23:33:24.634Z,7.90
2019-04-05T23:35:51.971Z,7.90
2019-04-05T23:38:19.414Z,7.90
2019-04-05T23:40:46.673Z,7.90
2019-04-05T23:43:13.941Z,7.80
2019-04-05T23:45:41.225Z,7.80
2019-04-05T23:48:08.844Z,7.80
2019-04-05T23:50:35.900Z,7.80
2019-04-05T23:53:03.147Z,7.70
2019-04-05T23:55:33.391Z,7.70
2019-04-05T23:57:59.810Z,7.60
